Conakry, Guinea
Current Conditions -  °F | °C
As of 7:00 PM on Thursday 23 Oct 2014 (Local Time) from GGOV Reporting Station
Broken Clouds Broken Clouds  
Wind Chill: 82°   Ceiling: 1400
Heat Index: 89°   Visibility: 6mi
Dew Point: 75°   Wind: 7mph
Humidity: 79%   Direction: 260°W
Pressure: 29.83"   Gusts: NA
Location:  9.55°N, 13.67°W
Report Text: GGOV 231900Z 26006KT 9999 BKN014TCU 28/24 Q1010 NOSIG
Loading
Personal Weather Stations






























Interactive Weather Map New forecast layout! Learn more

10-Day Weather Forecast

Advertisements
Track Severe Weather on mobile